sensor_id;sensor_type;location;lat;lon;timestamp;temperature;humidity
32877;DHT22;19226;51.600;8.034;2023-06-14T00:02:39;19.50;99.90
32877;DHT22;19226;51.600;8.034;2023-06-14T00:05:24;19.50;99.90
32877;DHT22;19226;51.600;8.034;2023-06-14T00:08:11;19.50;99.90
32877;DHT22;19226;51.600;8.034;2023-06-14T00:10:56;19.40;99.90
32877;DHT22;19226;51.600;8.034;2023-06-14T00:13:41;19.30;99.90
32877;DHT22;19226;51.600;8.034;2023-06-14T00:16:27;19.20;99.90
32877;DHT22;19226;51.600;8.034;2023-06-14T00:19:12;19.20;99.90
32877;DHT22;19226;51.600;8.034;2023-06-14T00:21:56;19.10;99.90
32877;DHT22;19226;51.600;8.034;2023-06-14T00:24:41;19.10;99.90
32877;DHT22;19226;51.600;8.034;2023-06-14T00:27:26;19.00;99.90
32877;DHT22;19226;51.600;8.034;2023-06-14T00:30:11;18.90;99.90
32877;DHT22;19226;51.600;8.034;2023-06-14T00:32:56;18.90;99.90
32877;DHT22;19226;51.600;8.034;2023-06-14T00:35:42;18.80;99.90
32877;DHT22;19226;51.600;8.034;2023-06-14T00:38:27;18.70;99.90
32877;DHT22;19226;51.600;8.034;2023-06-14T00:41:11;18.70;99.90
32877;DHT22;19226;51.600;8.034;2023-06-14T00:43:56;18.70;99.90
32877;DHT22;19226;51.600;8.034;2023-06-14T00:46:40;18.60;99.90
32877;DHT22;19226;51.600;8.034;2023-06-14T00:49:30;18.60;99.90
32877;DHT22;19226;51.600;8.034;2023-06-14T00:52:16;18.50;99.90
32877;DHT22;19226;51.600;8.034;2023-06-14T00:55:00;18.50;99.90
32877;DHT22;19226;51.600;8.034;2023-06-14T00:57:48;18.50;99.90
32877;DHT22;19226;51.600;8.034;2023-06-14T01:00:34;18.50;99.90
32877;DHT22;19226;51.600;8.034;2023-06-14T01:03:18;18.50;99.90
32877;DHT22;19226;51.600;8.034;2023-06-14T01:06:23;18.40;99.90
32877;DHT22;19226;51.600;8.034;2023-06-14T01:09:17;18.50;99.90
32877;DHT22;19226;51.600;8.034;2023-06-14T01:12:24;18.40;99.90
32877;DHT22;19226;51.600;8.034;2023-06-14T01:15:10;18.30;99.90
32877;DHT22;19226;51.600;8.034;2023-06-14T01:17:57;18.30;99.90
32877;DHT22;19226;51.600;8.034;2023-06-14T01:20:47;18.30;99.90
32877;DHT22;19226;51.600;8.034;2023-06-14T01:23:36;18.20;99.90
32877;DHT22;19226;51.600;8.034;2023-06-14T01:26:22;18.10;99.90
32877;DHT22;19226;51.600;8.034;2023-06-14T01:29:06;18.10;99.90
32877;DHT22;19226;51.600;8.034;2023-06-14T01:31:51;18.10;99.90
32877;DHT22;19226;51.600;8.034;2023-06-14T01:34:35;18.10;99.90
32877;DHT22;19226;51.600;8.034;2023-06-14T01:37:20;18.00;99.90
32877;DHT22;19226;51.600;8.034;2023-06-14T01:40:06;18.00;99.90
32877;DHT22;19226;51.600;8.034;2023-06-14T01:42:53;17.90;99.90
32877;DHT22;19226;51.600;8.034;2023-06-14T01:45:37;17.80;99.90
32877;DHT22;19226;51.600;8.034;2023-06-14T01:48:23;17.80;99.90
32877;DHT22;19226;51.600;8.034;2023-06-14T01:51:08;17.80;99.90
32877;DHT22;19226;51.600;8.034;2023-06-14T01:53:52;17.80;99.90
32877;DHT22;19226;51.600;8.034;2023-06-14T01:56:37;17.70;99.90
32877;DHT22;19226;51.600;8.034;2023-06-14T01:59:21;17.70;99.90
32877;DHT22;19226;51.600;8.034;2023-06-14T02:02:06;17.70;99.90
32877;DHT22;19226;51.600;8.034;2023-06-14T02:04:51;17.70;99.90
32877;DHT22;19226;51.600;8.034;2023-06-14T02:07:36;17.70;99.90
32877;DHT22;19226;51.600;8.034;2023-06-14T02:10:21;17.60;99.90
32877;DHT22;19226;51.600;8.034;2023-06-14T02:13:05;17.60;99.90
32877;DHT22;19226;51.600;8.034;2023-06-14T02:15:50;17.50;99.90
32877;DHT22;19226;51.600;8.034;2023-06-14T02:18:39;17.50;99.90
32877;DHT22;19226;51.600;8.034;2023-06-14T02:21:24;17.60;99.90
32877;DHT22;19226;51.600;8.034;2023-06-14T02:24:08;17.50;99.90
32877;DHT22;19226;51.600;8.034;2023-06-14T02:26:54;17.50;99.90
32877;DHT22;19226;51.600;8.034;2023-06-14T02:29:39;17.50;99.90
32877;DHT22;19226;51.600;8.034;2023-06-14T02:32:23;17.40;99.90
32877;DHT22;19226;51.600;8.034;2023-06-14T02:35:08;17.40;99.90
32877;DHT22;19226;51.600;8.034;2023-06-14T02:37:53;17.30;99.90
32877;DHT22;19226;51.600;8.034;2023-06-14T02:40:40;17.30;99.90
32877;DHT22;19226;51.600;8.034;2023-06-14T02:43:28;17.20;99.90
32877;DHT22;19226;51.600;8.034;2023-06-14T02:46:13;17.20;99.90
32877;DHT22;19226;51.600;8.034;2023-06-14T02:48:57;17.10;99.90
32877;DHT22;19226;51.600;8.034;2023-06-14T02:51:42;17.10;99.90
32877;DHT22;19226;51.600;8.034;2023-06-14T02:54:27;17.00;99.90
32877;DHT22;19226;51.600;8.034;2023-06-14T02:57:11;17.00;99.90
32877;DHT22;19226;51.600;8.034;2023-06-14T02:59:56;16.90;99.90
32877;DHT22;19226;51.600;8.034;2023-06-14T03:02:41;16.80;99.90
32877;DHT22;19226;51.600;8.034;2023-06-14T03:05:27;16.80;99.90
32877;DHT22;19226;51.600;8.034;2023-06-14T03:08:15;16.80;99.90
32877;DHT22;19226;51.600;8.034;2023-06-14T03:11:02;16.80;99.90
32877;DHT22;19226;51.600;8.034;2023-06-14T03:13:47;16.70;99.90
32877;DHT22;19226;51.600;8.034;2023-06-14T03:16:32;16.70;99.90
32877;DHT22;19226;51.600;8.034;2023-06-14T03:19:18;16.70;99.90
32877;DHT22;19226;51.600;8.034;2023-06-14T03:22:02;16.60;99.90
32877;DHT22;19226;51.600;8.034;2023-06-14T03:24:49;16.50;99.90
32877;DHT22;19226;51.600;8.034;2023-06-14T03:27:35;16.60;99.90
32877;DHT22;19226;51.600;8.034;2023-06-14T03:30:20;16.60;99.90
32877;DHT22;19226;51.600;8.034;2023-06-14T03:33:07;16.50;99.90
32877;DHT22;19226;51.600;8.034;2023-06-14T03:35:56;16.40;99.90
32877;DHT22;19226;51.600;8.034;2023-06-14T03:38:42;16.40;99.90
32877;DHT22;19226;51.600;8.034;2023-06-14T03:41:26;16.30;99.90
32877;DHT22;19226;51.600;8.034;2023-06-14T03:44:15;16.30;99.90
32877;DHT22;19226;51.600;8.034;2023-06-14T03:47:01;16.20;99.90
32877;DHT22;19226;51.600;8.034;2023-06-14T03:49:46;16.20;99.90
32877;DHT22;19226;51.600;8.034;2023-06-14T03:52:31;16.20;99.90
32877;DHT22;19226;51.600;8.034;2023-06-14T03:55:17;16.20;99.90
32877;DHT22;19226;51.600;8.034;2023-06-14T03:58:01;16.20;99.90
32877;DHT22;19226;51.600;8.034;2023-06-14T04:00:47;16.20;99.90
32877;DHT22;19226;51.600;8.034;2023-06-14T04:03:32;16.10;99.90
32877;DHT22;19226;51.600;8.034;2023-06-14T04:06:19;16.10;99.90
32877;DHT22;19226;51.600;8.034;2023-06-14T04:09:03;16.10;99.90
32877;DHT22;19226;51.600;8.034;2023-06-14T04:11:48;16.10;99.90
32877;DHT22;19226;51.600;8.034;2023-06-14T04:14:33;16.10;99.90
32877;DHT22;19226;51.600;8.034;2023-06-14T04:17:18;16.10;99.90
32877;DHT22;19226;51.600;8.034;2023-06-14T04:20:04;16.10;99.90
32877;DHT22;19226;51.600;8.034;2023-06-14T04:22:49;16.10;99.90
32877;DHT22;19226;51.600;8.034;2023-06-14T04:25:34;16.20;99.90
32877;DHT22;19226;51.600;8.034;2023-06-14T04:28:19;16.20;99.90
32877;DHT22;19226;51.600;8.034;2023-06-14T04:31:04;16.30;99.90
32877;DHT22;19226;51.600;8.034;2023-06-14T04:33:50;16.30;99.90
32877;DHT22;19226;51.600;8.034;2023-06-14T04:36:39;16.40;99.90
32877;DHT22;19226;51.600;8.034;2023-06-14T04:39:34;16.40;99.90
32877;DHT22;19226;51.600;8.034;2023-06-14T04:42:20;16.50;99.90
32877;DHT22;19226;51.600;8.034;2023-06-14T04:45:06;16.50;99.90
32877;DHT22;19226;51.600;8.034;2023-06-14T04:47:51;16.50;99.90
32877;DHT22;19226;51.600;8.034;2023-06-14T04:50:41;16.60;99.90
32877;DHT22;19226;51.600;8.034;2023-06-14T04:53:28;16.70;99.90
32877;DHT22;19226;51.600;8.034;2023-06-14T04:56:14;16.80;99.90
32877;DHT22;19226;51.600;8.034;2023-06-14T04:58:59;16.90;99.90
32877;DHT22;19226;51.600;8.034;2023-06-14T05:01:43;16.90;99.90
32877;DHT22;19226;51.600;8.034;2023-06-14T05:04:32;16.90;99.90
32877;DHT22;19226;51.600;8.034;2023-06-14T05:07:17;17.00;99.90
32877;DHT22;19226;51.600;8.034;2023-06-14T05:10:01;17.10;99.90
32877;DHT22;19226;51.600;8.034;2023-06-14T05:12:46;17.10;99.90
32877;DHT22;19226;51.600;8.034;2023-06-14T05:15:33;17.20;99.90
32877;DHT22;19226;51.600;8.034;2023-06-14T05:18:18;17.30;99.90
32877;DHT22;19226;51.600;8.034;2023-06-14T05:21:03;17.40;99.90
32877;DHT22;19226;51.600;8.034;2023-06-14T05:23:49;17.50;99.90
32877;DHT22;19226;51.600;8.034;2023-06-14T05:26:35;17.50;99.90
32877;DHT22;19226;51.600;8.034;2023-06-14T05:29:19;17.60;99.90
32877;DHT22;19226;51.600;8.034;2023-06-14T05:32:04;17.70;99.90
32877;DHT22;19226;51.600;8.034;2023-06-14T05:34:48;17.90;99.90
32877;DHT22;19226;51.600;8.034;2023-06-14T05:37:32;18.00;99.90
32877;DHT22;19226;51.600;8.034;2023-06-14T05:40:17;17.90;99.90
32877;DHT22;19226;51.600;8.034;2023-06-14T05:43:02;18.00;99.90
32877;DHT22;19226;51.600;8.034;2023-06-14T05:45:46;18.10;99.90
32877;DHT22;19226;51.600;8.034;2023-06-14T05:48:31;18.20;99.90
32877;DHT22;19226;51.600;8.034;2023-06-14T05:51:15;18.30;99.90
32877;DHT22;19226;51.600;8.034;2023-06-14T05:54:02;18.30;99.90
32877;DHT22;19226;51.600;8.034;2023-06-14T05:56:47;18.30;99.90
32877;DHT22;19226;51.600;8.034;2023-06-14T05:59:31;18.40;99.90
32877;DHT22;19226;51.600;8.034;2023-06-14T06:02:16;18.60;99.90
32877;DHT22;19226;51.600;8.034;2023-06-14T06:05:00;18.60;99.90
32877;DHT22;19226;51.600;8.034;2023-06-14T06:07:45;18.80;99.90
32877;DHT22;19226;51.600;8.034;2023-06-14T06:10:30;18.90;99.90
32877;DHT22;19226;51.600;8.034;2023-06-14T06:13:15;19.00;99.90
32877;DHT22;19226;51.600;8.034;2023-06-14T06:16:00;19.00;99.90
32877;DHT22;19226;51.600;8.034;2023-06-14T06:18:44;19.10;99.90
32877;DHT22;19226;51.600;8.034;2023-06-14T06:21:29;19.20;99.90
32877;DHT22;19226;51.600;8.034;2023-06-14T06:24:14;19.20;99.90
32877;DHT22;19226;51.600;8.034;2023-06-14T06:26:58;19.30;99.90
32877;DHT22;19226;51.600;8.034;2023-06-14T06:29:43;19.30;99.90
32877;DHT22;19226;51.600;8.034;2023-06-14T06:32:30;19.30;99.90
32877;DHT22;19226;51.600;8.034;2023-06-14T06:35:15;19.50;99.90
32877;DHT22;19226;51.600;8.034;2023-06-14T06:37:59;19.60;99.90
32877;DHT22;19226;51.600;8.034;2023-06-14T06:40:48;19.70;99.90
32877;DHT22;19226;51.600;8.034;2023-06-14T06:43:32;19.80;99.90
32877;DHT22;19226;51.600;8.034;2023-06-14T06:46:17;20.00;99.90
32877;DHT22;19226;51.600;8.034;2023-06-14T06:49:03;20.10;99.90
32877;DHT22;19226;51.600;8.034;2023-06-14T06:52:01;20.20;99.90
32877;DHT22;19226;51.600;8.034;2023-06-14T06:54:46;20.40;99.90
32877;DHT22;19226;51.600;8.034;2023-06-14T06:57:30;20.50;99.90
32877;DHT22;19226;51.600;8.034;2023-06-14T07:00:16;20.50;99.90
32877;DHT22;19226;51.600;8.034;2023-06-14T07:03:01;20.60;99.90
32877;DHT22;19226;51.600;8.034;2023-06-14T07:05:47;20.70;99.90
32877;DHT22;19226;51.600;8.034;2023-06-14T07:08:32;20.70;99.90
32877;DHT22;19226;51.600;8.034;2023-06-14T07:11:17;20.70;99.90
32877;DHT22;19226;51.600;8.034;2023-06-14T07:14:01;20.70;99.90
32877;DHT22;19226;51.600;8.034;2023-06-14T07:16:46;20.70;99.90
32877;DHT22;19226;51.600;8.034;2023-06-14T07:19:30;20.80;99.90
32877;DHT22;19226;51.600;8.034;2023-06-14T07:22:15;20.80;99.90
32877;DHT22;19226;51.600;8.034;2023-06-14T07:25:00;20.90;99.90
32877;DHT22;19226;51.600;8.034;2023-06-14T07:27:45;21.00;99.90
32877;DHT22;19226;51.600;8.034;2023-06-14T07:30:29;21.00;99.90
32877;DHT22;19226;51.600;8.034;2023-06-14T07:33:14;21.00;99.90
32877;DHT22;19226;51.600;8.034;2023-06-14T07:35:58;21.20;99.90
32877;DHT22;19226;51.600;8.034;2023-06-14T07:38:43;21.30;99.90
32877;DHT22;19226;51.600;8.034;2023-06-14T07:41:28;21.40;99.90
32877;DHT22;19226;51.600;8.034;2023-06-14T07:44:12;21.50;99.90
32877;DHT22;19226;51.600;8.034;2023-06-14T07:46:57;21.50;99.90
32877;DHT22;19226;51.600;8.034;2023-06-14T07:49:44;21.50;99.90
32877;DHT22;19226;51.600;8.034;2023-06-14T07:52:28;21.60;99.90
32877;DHT22;19226;51.600;8.034;2023-06-14T07:55:13;21.60;99.90
32877;DHT22;19226;51.600;8.034;2023-06-14T07:57:59;21.70;99.90
32877;DHT22;19226;51.600;8.034;2023-06-14T08:00:44;21.80;99.90
32877;DHT22;19226;51.600;8.034;2023-06-14T08:03:28;21.90;99.90
32877;DHT22;19226;51.600;8.034;2023-06-14T08:06:14;21.90;99.90
32877;DHT22;19226;51.600;8.034;2023-06-14T08:08:59;22.00;99.90
32877;DHT22;19226;51.600;8.034;2023-06-14T08:11:44;22.00;99.90
32877;DHT22;19226;51.600;8.034;2023-06-14T08:14:28;22.10;99.90
32877;DHT22;19226;51.600;8.034;2023-06-14T08:17:13;22.20;99.90
32877;DHT22;19226;51.600;8.034;2023-06-14T08:19:57;22.20;99.90
32877;DHT22;19226;51.600;8.034;2023-06-14T08:22:42;22.20;99.90
32877;DHT22;19226;51.600;8.034;2023-06-14T08:25:27;22.10;99.90
32877;DHT22;19226;51.600;8.034;2023-06-14T08:28:12;22.20;99.90
32877;DHT22;19226;51.600;8.034;2023-06-14T08:30:56;22.30;99.90
32877;DHT22;19226;51.600;8.034;2023-06-14T08:33:41;22.50;99.90
32877;DHT22;19226;51.600;8.034;2023-06-14T08:36:27;22.60;99.90
32877;DHT22;19226;51.600;8.034;2023-06-14T08:39:11;22.60;99.90
32877;DHT22;19226;51.600;8.034;2023-06-14T08:41:56;22.60;99.90
32877;DHT22;19226;51.600;8.034;2023-06-14T08:44:41;22.60;99.90
32877;DHT22;19226;51.600;8.034;2023-06-14T08:47:26;22.70;99.90
32877;DHT22;19226;51.600;8.034;2023-06-14T08:50:13;22.60;99.90
32877;DHT22;19226;51.600;8.034;2023-06-14T08:53:02;22.60;99.90
32877;DHT22;19226;51.600;8.034;2023-06-14T08:55:46;22.70;99.90
32877;DHT22;19226;51.600;8.034;2023-06-14T08:58:31;22.70;99.90
32877;DHT22;19226;51.600;8.034;2023-06-14T09:01:18;22.80;99.90
32877;DHT22;19226;51.600;8.034;2023-06-14T09:04:03;22.90;99.90
32877;DHT22;19226;51.600;8.034;2023-06-14T09:06:49;22.90;99.90
32877;DHT22;19226;51.600;8.034;2023-06-14T09:09:40;22.90;99.90
32877;DHT22;19226;51.600;8.034;2023-06-14T09:12:26;22.90;99.90
32877;DHT22;19226;51.600;8.034;2023-06-14T09:15:10;22.90;99.90
32877;DHT22;19226;51.600;8.034;2023-06-14T09:17:55;23.10;99.90
32877;DHT22;19226;51.600;8.034;2023-06-14T09:20:40;23.20;99.90
32877;DHT22;19226;51.600;8.034;2023-06-14T09:23:25;23.30;99.90
32877;DHT22;19226;51.600;8.034;2023-06-14T09:26:11;23.30;99.90
32877;DHT22;19226;51.600;8.034;2023-06-14T09:28:56;23.40;99.90
32877;DHT22;19226;51.600;8.034;2023-06-14T09:31:42;23.50;99.90
32877;DHT22;19226;51.600;8.034;2023-06-14T09:34:26;23.60;99.90
32877;DHT22;19226;51.600;8.034;2023-06-14T09:37:11;23.80;99.90
32877;DHT22;19226;51.600;8.034;2023-06-14T09:39:55;23.90;99.90
32877;DHT22;19226;51.600;8.034;2023-06-14T09:42:40;23.90;99.90
32877;DHT22;19226;51.600;8.034;2023-06-14T09:45:26;23.90;99.90
32877;DHT22;19226;51.600;8.034;2023-06-14T09:48:13;23.90;99.90
32877;DHT22;19226;51.600;8.034;2023-06-14T09:51:02;24.00;99.90
32877;DHT22;19226;51.600;8.034;2023-06-14T09:53:48;24.10;99.90
32877;DHT22;19226;51.600;8.034;2023-06-14T09:56:43;24.20;99.90
32877;DHT22;19226;51.600;8.034;2023-06-14T09:59:31;24.40;99.90
32877;DHT22;19226;51.600;8.034;2023-06-14T10:02:36;24.40;99.90
32877;DHT22;19226;51.600;8.034;2023-06-14T10:05:23;24.40;99.90
32877;DHT22;19226;51.600;8.034;2023-06-14T10:08:10;24.30;99.90
32877;DHT22;19226;51.600;8.034;2023-06-14T10:10:58;24.30;99.90
32877;DHT22;19226;51.600;8.034;2023-06-14T10:13:42;24.40;99.90
32877;DHT22;19226;51.600;8.034;2023-06-14T10:16:42;24.40;99.90
32877;DHT22;19226;51.600;8.034;2023-06-14T10:19:34;24.40;99.90
32877;DHT22;19226;51.600;8.034;2023-06-14T10:22:26;24.60;99.90
32877;DHT22;19226;51.600;8.034;2023-06-14T10:25:26;24.70;99.90
32877;DHT22;19226;51.600;8.034;2023-06-14T10:31:08;24.80;99.30
32877;DHT22;19226;51.600;8.034;2023-06-14T10:36:41;24.70;98.20
32877;DHT22;19226;51.600;8.034;2023-06-14T10:39:26;24.70;98.90
32877;DHT22;19226;51.600;8.034;2023-06-14T10:42:10;24.80;97.60
32877;DHT22;19226;51.600;8.034;2023-06-14T10:44:56;24.90;98.70
32877;DHT22;19226;51.600;8.034;2023-06-14T10:47:41;25.10;97.70
32877;DHT22;19226;51.600;8.034;2023-06-14T10:50:29;25.00;97.70
32877;DHT22;19226;51.600;8.034;2023-06-14T10:53:23;25.20;98.70
32877;DHT22;19226;51.600;8.034;2023-06-14T10:56:29;25.10;97.30
32877;DHT22;19226;51.600;8.034;2023-06-14T10:59:15;25.30;96.90
32877;DHT22;19226;51.600;8.034;2023-06-14T11:05:08;25.50;97.20
32877;DHT22;19226;51.600;8.034;2023-06-14T11:08:15;25.50;96.30
32877;DHT22;19226;51.600;8.034;2023-06-14T11:11:06;25.50;95.10
32877;DHT22;19226;51.600;8.034;2023-06-14T11:13:51;25.60;96.30
32877;DHT22;19226;51.600;8.034;2023-06-14T11:16:36;25.70;95.50
32877;DHT22;19226;51.600;8.034;2023-06-14T11:19:21;25.80;95.20
32877;DHT22;19226;51.600;8.034;2023-06-14T11:22:06;25.60;94.90
32877;DHT22;19226;51.600;8.034;2023-06-14T11:24:51;25.60;94.70
32877;DHT22;19226;51.600;8.034;2023-06-14T11:27:35;25.50;94.60
32877;DHT22;19226;51.600;8.034;2023-06-14T11:30:20;25.40;94.30
32877;DHT22;19226;51.600;8.034;2023-06-14T11:33:09;25.50;95.00
32877;DHT22;19226;51.600;8.034;2023-06-14T11:35:53;25.60;95.10
32877;DHT22;19226;51.600;8.034;2023-06-14T11:38:38;25.70;94.50
32877;DHT22;19226;51.600;8.034;2023-06-14T11:41:24;25.80;95.00
32877;DHT22;19226;51.600;8.034;2023-06-14T11:44:09;26.00;94.90
32877;DHT22;19226;51.600;8.034;2023-06-14T11:46:54;26.10;93.90
32877;DHT22;19226;51.600;8.034;2023-06-14T11:49:41;26.20;93.20
32877;DHT22;19226;51.600;8.034;2023-06-14T11:52:26;26.30;93.60
32877;DHT22;19226;51.600;8.034;2023-06-14T11:55:10;26.30;94.40
32877;DHT22;19226;51.600;8.034;2023-06-14T11:57:55;26.60;95.10
32877;DHT22;19226;51.600;8.034;2023-06-14T12:00:40;26.70;93.30
32877;DHT22;19226;51.600;8.034;2023-06-14T12:03:25;26.70;93.40
32877;DHT22;19226;51.600;8.034;2023-06-14T12:06:09;26.90;92.70
32877;DHT22;19226;51.600;8.034;2023-06-14T12:08:56;26.90;91.80
32877;DHT22;19226;51.600;8.034;2023-06-14T12:11:40;27.00;92.20
32877;DHT22;19226;51.600;8.034;2023-06-14T12:14:29;27.10;91.90
32877;DHT22;19226;51.600;8.034;2023-06-14T12:17:13;27.30;90.50
32877;DHT22;19226;51.600;8.034;2023-06-14T12:20:14;27.20;90.10
32877;DHT22;19226;51.600;8.034;2023-06-14T12:22:59;27.20;90.00
32877;DHT22;19226;51.600;8.034;2023-06-14T12:25:46;27.10;90.00
32877;DHT22;19226;51.600;8.034;2023-06-14T12:28:33;27.10;90.00
32877;DHT22;19226;51.600;8.034;2023-06-14T12:31:17;27.20;88.80
32877;DHT22;19226;51.600;8.034;2023-06-14T12:34:03;27.20;87.30
32877;DHT22;19226;51.600;8.034;2023-06-14T12:36:47;27.40;90.90
32877;DHT22;19226;51.600;8.034;2023-06-14T12:39:32;27.60;88.10
32877;DHT22;19226;51.600;8.034;2023-06-14T12:42:17;27.80;89.10
32877;DHT22;19226;51.600;8.034;2023-06-14T12:45:01;28.00;89.50
32877;DHT22;19226;51.600;8.034;2023-06-14T12:47:47;27.90;88.20
32877;DHT22;19226;51.600;8.034;2023-06-14T12:50:32;27.90;85.30
32877;DHT22;19226;51.600;8.034;2023-06-14T12:53:16;27.90;85.80
32877;DHT22;19226;51.600;8.034;2023-06-14T12:56:01;27.90;84.50
32877;DHT22;19226;51.600;8.034;2023-06-14T12:58:45;28.00;83.10
32877;DHT22;19226;51.600;8.034;2023-06-14T13:01:30;28.00;83.60
32877;DHT22;19226;51.600;8.034;2023-06-14T13:04:14;28.10;84.00
32877;DHT22;19226;51.600;8.034;2023-06-14T13:06:59;28.20;81.70
32877;DHT22;19226;51.600;8.034;2023-06-14T13:09:44;28.10;80.70
32877;DHT22;19226;51.600;8.034;2023-06-14T13:12:28;28.10;80.90
32877;DHT22;19226;51.600;8.034;2023-06-14T13:15:13;28.00;81.20
32877;DHT22;19226;51.600;8.034;2023-06-14T13:17:57;28.00;82.10
32877;DHT22;19226;51.600;8.034;2023-06-14T13:20:42;28.10;81.20
32877;DHT22;19226;51.600;8.034;2023-06-14T13:23:26;28.30;81.00
32877;DHT22;19226;51.600;8.034;2023-06-14T13:26:11;28.30;79.20
32877;DHT22;19226;51.600;8.034;2023-06-14T13:28:56;28.10;79.40
32877;DHT22;19226;51.600;8.034;2023-06-14T13:31:40;28.10;80.30
32877;DHT22;19226;51.600;8.034;2023-06-14T13:34:25;27.80;78.40
32877;DHT22;19226;51.600;8.034;2023-06-14T13:37:09;27.90;78.10
32877;DHT22;19226;51.600;8.034;2023-06-14T13:39:53;27.90;78.50
32877;DHT22;19226;51.600;8.034;2023-06-14T13:42:38;28.00;77.80
32877;DHT22;19226;51.600;8.034;2023-06-14T13:45:23;28.00;77.00
32877;DHT22;19226;51.600;8.034;2023-06-14T13:48:07;28.00;77.90
32877;DHT22;19226;51.600;8.034;2023-06-14T13:50:52;28.10;75.90
32877;DHT22;19226;51.600;8.034;2023-06-14T13:53:37;28.10;76.30
32877;DHT22;19226;51.600;8.034;2023-06-14T13:56:21;28.00;75.90
32877;DHT22;19226;51.600;8.034;2023-06-14T13:59:08;27.80;76.20
32877;DHT22;19226;51.600;8.034;2023-06-14T14:01:53;27.90;77.20
32877;DHT22;19226;51.600;8.034;2023-06-14T14:04:38;28.00;76.10
32877;DHT22;19226;51.600;8.034;2023-06-14T14:07:23;27.90;76.70
32877;DHT22;19226;51.600;8.034;2023-06-14T14:10:08;27.90;76.80
32877;DHT22;19226;51.600;8.034;2023-06-14T14:12:53;27.90;76.50
32877;DHT22;19226;51.600;8.034;2023-06-14T14:15:38;27.90;77.40
32877;DHT22;19226;51.600;8.034;2023-06-14T14:18:23;27.80;78.30
32877;DHT22;19226;51.600;8.034;2023-06-14T14:21:07;27.90;77.90
32877;DHT22;19226;51.600;8.034;2023-06-14T14:23:52;27.80;76.90
32877;DHT22;19226;51.600;8.034;2023-06-14T14:26:37;27.80;77.30
32877;DHT22;19226;51.600;8.034;2023-06-14T14:29:21;28.00;78.30
32877;DHT22;19226;51.600;8.034;2023-06-14T14:32:07;28.40;78.10
32877;DHT22;19226;51.600;8.034;2023-06-14T14:34:52;28.60;76.70
32877;DHT22;19226;51.600;8.034;2023-06-14T14:37:36;28.80;73.90
32877;DHT22;19226;51.600;8.034;2023-06-14T14:40:21;28.80;73.90
32877;DHT22;19226;51.600;8.034;2023-06-14T14:43:06;28.90;74.50
32877;DHT22;19226;51.600;8.034;2023-06-14T14:45:50;29.10;72.90
32877;DHT22;19226;51.600;8.034;2023-06-14T14:48:34;29.10;72.20
32877;DHT22;19226;51.600;8.034;2023-06-14T14:51:19;29.20;73.90
32877;DHT22;19226;51.600;8.034;2023-06-14T14:54:04;29.20;72.70
32877;DHT22;19226;51.600;8.034;2023-06-14T14:56:49;29.20;73.10
32877;DHT22;19226;51.600;8.034;2023-06-14T14:59:34;29.20;72.20
32877;DHT22;19226;51.600;8.034;2023-06-14T15:02:18;29.20;72.50
32877;DHT22;19226;51.600;8.034;2023-06-14T15:05:03;29.00;72.80
32877;DHT22;19226;51.600;8.034;2023-06-14T15:07:47;28.70;73.40
32877;DHT22;19226;51.600;8.034;2023-06-14T15:10:32;28.60;73.70
32877;DHT22;19226;51.600;8.034;2023-06-14T15:13:16;28.50;75.00
32877;DHT22;19226;51.600;8.034;2023-06-14T15:16:01;28.40;74.30
32877;DHT22;19226;51.600;8.034;2023-06-14T15:18:46;28.20;73.70
32877;DHT22;19226;51.600;8.034;2023-06-14T15:21:30;28.20;74.90
32877;DHT22;19226;51.600;8.034;2023-06-14T15:24:14;28.40;76.60
32877;DHT22;19226;51.600;8.034;2023-06-14T15:26:59;28.80;76.30
32877;DHT22;19226;51.600;8.034;2023-06-14T15:29:44;28.80;74.00
32877;DHT22;19226;51.600;8.034;2023-06-14T15:32:28;28.70;74.70
32877;DHT22;19226;51.600;8.034;2023-06-14T15:35:14;28.60;74.60
32877;DHT22;19226;51.600;8.034;2023-06-14T15:37:59;28.50;75.10
32877;DHT22;19226;51.600;8.034;2023-06-14T15:40:43;28.40;76.20
32877;DHT22;19226;51.600;8.034;2023-06-14T15:43:28;28.20;77.50
32877;DHT22;19226;51.600;8.034;2023-06-14T15:46:12;28.10;77.20
32877;DHT22;19226;51.600;8.034;2023-06-14T15:48:57;27.90;77.20
32877;DHT22;19226;51.600;8.034;2023-06-14T15:51:41;27.80;78.00
32877;DHT22;19226;51.600;8.034;2023-06-14T15:54:26;28.00;77.80
32877;DHT22;19226;51.600;8.034;2023-06-14T15:57:10;28.10;78.10
32877;DHT22;19226;51.600;8.034;2023-06-14T15:59:55;28.30;78.20
32877;DHT22;19226;51.600;8.034;2023-06-14T16:02:40;28.40;76.30
32877;DHT22;19226;51.600;8.034;2023-06-14T16:05:24;28.30;77.20
32877;DHT22;19226;51.600;8.034;2023-06-14T16:08:09;28.30;76.50
32877;DHT22;19226;51.600;8.034;2023-06-14T16:10:53;28.20;77.20
32877;DHT22;19226;51.600;8.034;2023-06-14T16:13:41;28.30;77.70
32877;DHT22;19226;51.600;8.034;2023-06-14T16:16:26;28.40;76.90
32877;DHT22;19226;51.600;8.034;2023-06-14T16:19:10;28.50;76.40
32877;DHT22;19226;51.600;8.034;2023-06-14T16:21:55;28.80;77.00
32877;DHT22;19226;51.600;8.034;2023-06-14T16:24:39;29.00;76.70
32877;DHT22;19226;51.600;8.034;2023-06-14T16:27:24;28.90;76.00
32877;DHT22;19226;51.600;8.034;2023-06-14T16:30:09;28.80;76.10
32877;DHT22;19226;51.600;8.034;2023-06-14T16:32:53;28.70;75.80
32877;DHT22;19226;51.600;8.034;2023-06-14T16:35:38;28.50;75.90
32877;DHT22;19226;51.600;8.034;2023-06-14T16:38:23;28.30;75.60
32877;DHT22;19226;51.600;8.034;2023-06-14T16:41:07;28.10;75.80
32877;DHT22;19226;51.600;8.034;2023-06-14T16:43:52;27.90;76.40
32877;DHT22;19226;51.600;8.034;2023-06-14T16:46:37;27.70;76.50
32877;DHT22;19226;51.600;8.034;2023-06-14T16:49:22;27.50;76.70
32877;DHT22;19226;51.600;8.034;2023-06-14T16:52:06;27.40;76.50
32877;DHT22;19226;51.600;8.034;2023-06-14T16:54:51;27.20;77.00
32877;DHT22;19226;51.600;8.034;2023-06-14T16:57:37;27.10;77.80
32877;DHT22;19226;51.600;8.034;2023-06-14T17:00:22;27.00;78.60
32877;DHT22;19226;51.600;8.034;2023-06-14T17:03:06;27.00;79.60
32877;DHT22;19226;51.600;8.034;2023-06-14T17:05:56;27.00;79.60
32877;DHT22;19226;51.600;8.034;2023-06-14T17:08:41;26.90;80.10
32877;DHT22;19226;51.600;8.034;2023-06-14T17:11:25;26.80;80.30
32877;DHT22;19226;51.600;8.034;2023-06-14T17:14:10;26.70;80.80
32877;DHT22;19226;51.600;8.034;2023-06-14T17:16:56;26.60;80.40
32877;DHT22;19226;51.600;8.034;2023-06-14T17:19:41;26.50;81.40
32877;DHT22;19226;51.600;8.034;2023-06-14T17:22:25;26.50;81.10
32877;DHT22;19226;51.600;8.034;2023-06-14T17:25:10;26.40;81.90
32877;DHT22;19226;51.600;8.034;2023-06-14T17:27:55;26.30;82.00
32877;DHT22;19226;51.600;8.034;2023-06-14T17:30:39;26.20;82.50
32877;DHT22;19226;51.600;8.034;2023-06-14T17:33:24;26.10;82.30
32877;DHT22;19226;51.600;8.034;2023-06-14T17:36:09;26.10;82.40